sensor_id;sensor_type;location;lat;lon;timestamp;P1;durP1;ratioP1;P2;durP2;ratioP2
1376;SDS011;682;52.502;13.488;2023-05-01T00:02:11;11.70;;;6.23;;
1376;SDS011;682;52.502;13.488;2023-05-01T00:04:38;10.93;;;6.80;;
1376;SDS011;682;52.502;13.488;2023-05-01T00:07:05;29.47;;;19.77;;
1376;SDS011;682;52.502;13.488;2023-05-01T00:09:33;11.43;;;6.93;;
1376;SDS011;682;52.502;13.488;2023-05-01T00:12:00;11.80;;;7.77;;
1376;SDS011;682;52.502;13.488;2023-05-01T00:14:28;11.77;;;7.80;;
1376;SDS011;682;52.502;13.488;2023-05-01T00:16:55;12.67;;;7.30;;
1376;SDS011;682;52.502;13.488;2023-05-01T00:19:22;10.83;;;6.70;;
1376;SDS011;682;52.502;13.488;2023-05-01T00:21:49;12.17;;;8.70;;
1376;SDS011;682;52.502;13.488;2023-05-01T00:24:17;13.70;;;9.03;;
1376;SDS011;682;52.502;13.488;2023-05-01T00:26:47;11.20;;;9.33;;
1376;SDS011;682;52.502;13.488;2023-05-01T00:29:15;12.23;;;8.20;;
1376;SDS011;682;52.502;13.488;2023-05-01T00:31:42;11.80;;;6.77;;
1376;SDS011;682;52.502;13.488;2023-05-01T00:34:09;8.30;;;6.70;;
1376;SDS011;682;52.502;13.488;2023-05-01T00:36:36;9.93;;;6.10;;
1376;SDS011;682;52.502;13.488;2023-05-01T00:39:04;10.33;;;5.80;;
1376;SDS011;682;52.502;13.488;2023-05-01T00:41:31;10.97;;;6.23;;
1376;SDS011;682;52.502;13.488;2023-05-01T00:44:01;11.67;;;7.00;;
1376;SDS011;682;52.502;13.488;2023-05-01T00:46:28;12.07;;;6.63;;
1376;SDS011;682;52.502;13.488;2023-05-01T00:48:58;10.10;;;5.73;;
1376;SDS011;682;52.502;13.488;2023-05-01T00:51:25;12.23;;;6.93;;
1376;SDS011;682;52.502;13.488;2023-05-01T00:53:55;13.97;;;7.93;;
1376;SDS011;682;52.502;13.488;2023-05-01T00:56:29;12.97;;;7.90;;
1376;SDS011;682;52.502;13.488;2023-05-01T00:58:56;15.50;;;6.97;;
1376;SDS011;682;52.502;13.488;2023-05-01T01:01:27;9.57;;;6.37;;
1376;SDS011;682;52.502;13.488;2023-05-01T01:03:54;11.40;;;6.70;;
1376;SDS011;682;52.502;13.488;2023-05-01T01:06:23;9.40;;;6.60;;
1376;SDS011;682;52.502;13.488;2023-05-01T01:09:03;12.70;;;6.07;;
1376;SDS011;682;52.502;13.488;2023-05-01T01:11:45;19.60;;;11.27;;
1376;SDS011;682;52.502;13.488;2023-05-01T01:14:26;15.20;;;8.77;;
1376;SDS011;682;52.502;13.488;2023-05-01T01:17:01;10.87;;;6.63;;
1376;SDS011;682;52.502;13.488;2023-05-01T01:19:50;13.97;;;9.57;;
1376;SDS011;682;52.502;13.488;2023-05-01T01:22:38;14.43;;;8.37;;
1376;SDS011;682;52.502;13.488;2023-05-01T01:25:15;13.10;;;7.70;;
1376;SDS011;682;52.502;13.488;2023-05-01T01:28:15;13.80;;;7.30;;
1376;SDS011;682;52.502;13.488;2023-05-01T01:30:59;13.47;;;7.20;;
1376;SDS011;682;52.502;13.488;2023-05-01T01:33:42;12.27;;;8.00;;
1376;SDS011;682;52.502;13.488;2023-05-01T01:36:31;12.17;;;6.63;;
1376;SDS011;682;52.502;13.488;2023-05-01T01:39:06;10.20;;;7.40;;
1376;SDS011;682;52.502;13.488;2023-05-01T01:41:37;11.50;;;7.43;;
1376;SDS011;682;52.502;13.488;2023-05-01T01:44:06;9.87;;;6.80;;
1376;SDS011;682;52.502;13.488;2023-05-01T01:46:38;10.00;;;6.60;;
1376;SDS011;682;52.502;13.488;2023-05-01T01:49:10;12.33;;;7.17;;
1376;SDS011;682;52.502;13.488;2023-05-01T01:51:42;13.30;;;7.60;;
1376;SDS011;682;52.502;13.488;2023-05-01T01:54:10;13.60;;;7.60;;
1376;SDS011;682;52.502;13.488;2023-05-01T01:56:41;12.37;;;7.50;;
1376;SDS011;682;52.502;13.488;2023-05-01T01:59:09;13.33;;;7.00;;
1376;SDS011;682;52.502;13.488;2023-05-01T02:01:38;13.90;;;7.67;;
1376;SDS011;682;52.502;13.488;2023-05-01T02:04:08;11.30;;;7.47;;
1376;SDS011;682;52.502;13.488;2023-05-01T02:06:39;14.67;;;8.43;;
1376;SDS011;682;52.502;13.488;2023-05-01T02:09:07;11.40;;;7.53;;
1376;SDS011;682;52.502;13.488;2023-05-01T02:11:36;13.70;;;7.90;;
1376;SDS011;682;52.502;13.488;2023-05-01T02:14:05;12.10;;;8.07;;
1376;SDS011;682;52.502;13.488;2023-05-01T02:16:34;11.60;;;8.03;;
1376;SDS011;682;52.502;13.488;2023-05-01T02:19:03;10.93;;;7.60;;
1376;SDS011;682;52.502;13.488;2023-05-01T02:21:35;12.67;;;7.73;;
1376;SDS011;682;52.502;13.488;2023-05-01T02:24:04;12.10;;;7.87;;
1376;SDS011;682;52.502;13.488;2023-05-01T02:26:33;13.07;;;8.63;;
1376;SDS011;682;52.502;13.488;2023-05-01T02:29:06;17.48;;;9.13;;
1376;SDS011;682;52.502;13.488;2023-05-01T02:31:33;12.50;;;8.18;;
1376;SDS011;682;52.502;13.488;2023-05-01T02:34:00;13.03;;;8.20;;
1376;SDS011;682;52.502;13.488;2023-05-01T02:36:27;16.83;;;8.83;;
1376;SDS011;682;52.502;13.488;2023-05-01T02:38:57;13.93;;;9.33;;
1376;SDS011;682;52.502;13.488;2023-05-01T02:41:24;13.57;;;8.15;;
1376;SDS011;682;52.502;13.488;2023-05-01T02:43:55;14.70;;;9.20;;
1376;SDS011;682;52.502;13.488;2023-05-01T02:46:28;14.30;;;8.83;;
1376;SDS011;682;52.502;13.488;2023-05-01T02:48:57;13.30;;;9.00;;
1376;SDS011;682;52.502;13.488;2023-05-01T02:51:26;13.40;;;8.40;;
1376;SDS011;682;52.502;13.488;2023-05-01T02:53:55;16.33;;;8.98;;
1376;SDS011;682;52.502;13.488;2023-05-01T02:56:24;12.07;;;8.35;;
1376;SDS011;682;52.502;13.488;2023-05-01T02:58:52;13.57;;;7.88;;
1376;SDS011;682;52.502;13.488;2023-05-01T03:01:20;14.18;;;9.05;;
1376;SDS011;682;52.502;13.488;2023-05-01T03:03:47;13.23;;;8.50;;
1376;SDS011;682;52.502;13.488;2023-05-01T03:06:15;15.55;;;9.52;;
1376;SDS011;682;52.502;13.488;2023-05-01T03:08:44;15.95;;;9.52;;
1376;SDS011;682;52.502;13.488;2023-05-01T03:11:13;14.02;;;9.95;;
1376;SDS011;682;52.502;13.488;2023-05-01T03:13:40;14.80;;;9.45;;
1376;SDS011;682;52.502;13.488;2023-05-01T03:16:07;14.02;;;9.77;;
1376;SDS011;682;52.502;13.488;2023-05-01T03:18:35;15.30;;;8.70;;
1376;SDS011;682;52.502;13.488;2023-05-01T03:21:02;13.20;;;8.68;;
1376;SDS011;682;52.502;13.488;2023-05-01T03:23:29;17.13;;;8.85;;
1376;SDS011;682;52.502;13.488;2023-05-01T03:25:56;13.68;;;9.10;;
1376;SDS011;682;52.502;13.488;2023-05-01T03:28:25;13.77;;;8.50;;
1376;SDS011;682;52.502;13.488;2023-05-01T03:30:52;12.32;;;9.05;;
1376;SDS011;682;52.502;13.488;2023-05-01T03:33:19;11.20;;;7.82;;
1376;SDS011;682;52.502;13.488;2023-05-01T03:35:46;14.10;;;8.38;;
1376;SDS011;682;52.502;13.488;2023-05-01T03:38:13;14.65;;;8.45;;
1376;SDS011;682;52.502;13.488;2023-05-01T03:40:40;14.35;;;8.50;;
1376;SDS011;682;52.502;13.488;2023-05-01T03:43:07;14.95;;;9.13;;
1376;SDS011;682;52.502;13.488;2023-05-01T03:45:35;13.30;;;8.55;;
1376;SDS011;682;52.502;13.488;2023-05-01T03:48:03;15.68;;;8.77;;
1376;SDS011;682;52.502;13.488;2023-05-01T03:50:30;13.75;;;7.55;;
1376;SDS011;682;52.502;13.488;2023-05-01T03:52:58;15.10;;;8.80;;
1376;SDS011;682;52.502;13.488;2023-05-01T03:55:25;14.77;;;8.03;;
1376;SDS011;682;52.502;13.488;2023-05-01T03:57:52;12.65;;;8.45;;
1376;SDS011;682;52.502;13.488;2023-05-01T04:00:19;14.85;;;7.63;;
1376;SDS011;682;52.502;13.488;2023-05-01T04:02:50;13.63;;;8.18;;
1376;SDS011;682;52.502;13.488;2023-05-01T04:05:17;13.47;;;8.20;;
1376;SDS011;682;52.502;13.488;2023-05-01T04:07:45;13.90;;;8.13;;
1376;SDS011;682;52.502;13.488;2023-05-01T04:10:13;13.27;;;8.10;;
1376;SDS011;682;52.502;13.488;2023-05-01T04:12:41;11.63;;;8.15;;
1376;SDS011;682;52.502;13.488;2023-05-01T04:15:09;18.47;;;8.33;;
1376;SDS011;682;52.502;13.488;2023-05-01T04:17:40;13.52;;;7.75;;
1376;SDS011;682;52.502;13.488;2023-05-01T04:20:11;15.73;;;8.20;;
1376;SDS011;682;52.502;13.488;2023-05-01T04:22:40;13.75;;;8.38;;
1376;SDS011;682;52.502;13.488;2023-05-01T04:25:07;14.90;;;9.30;;
1376;SDS011;682;52.502;13.488;2023-05-01T04:27:35;13.27;;;8.57;;
1376;SDS011;682;52.502;13.488;2023-05-01T04:30:02;14.00;;;7.60;;
1376;SDS011;682;52.502;13.488;2023-05-01T04:32:32;14.35;;;8.07;;
1376;SDS011;682;52.502;13.488;2023-05-01T04:35:01;13.20;;;7.60;;
1376;SDS011;682;52.502;13.488;2023-05-01T04:37:31;12.80;;;7.75;;
1376;SDS011;682;52.502;13.488;2023-05-01T04:39:59;12.45;;;8.05;;
1376;SDS011;682;52.502;13.488;2023-05-01T04:42:29;14.18;;;8.23;;
1376;SDS011;682;52.502;13.488;2023-05-01T04:44:56;10.82;;;7.00;;
1376;SDS011;682;52.502;13.488;2023-05-01T04:47:25;10.95;;;7.40;;
1376;SDS011;682;52.502;13.488;2023-05-01T04:49:53;12.13;;;7.47;;
1376;SDS011;682;52.502;13.488;2023-05-01T04:52:20;15.30;;;7.28;;
1376;SDS011;682;52.502;13.488;2023-05-01T04:54:50;11.43;;;6.50;;
1376;SDS011;682;52.502;13.488;2023-05-01T04:57:17;11.77;;;7.03;;
1376;SDS011;682;52.502;13.488;2023-05-01T04:59:46;10.90;;;6.57;;
1376;SDS011;682;52.502;13.488;2023-05-01T05:02:13;12.07;;;6.75;;
1376;SDS011;682;52.502;13.488;2023-05-01T05:04:40;10.83;;;6.57;;
1376;SDS011;682;52.502;13.488;2023-05-01T05:07:08;12.10;;;7.10;;
1376;SDS011;682;52.502;13.488;2023-05-01T05:09:37;15.48;;;8.02;;
1376;SDS011;682;52.502;13.488;2023-05-01T05:12:06;10.90;;;7.38;;
1376;SDS011;682;52.502;13.488;2023-05-01T05:14:43;11.68;;;7.07;;
1376;SDS011;682;52.502;13.488;2023-05-01T05:17:12;13.48;;;7.03;;
1376;SDS011;682;52.502;13.488;2023-05-01T05:19:39;11.50;;;6.93;;
1376;SDS011;682;52.502;13.488;2023-05-01T05:22:06;12.33;;;6.63;;
1376;SDS011;682;52.502;13.488;2023-05-01T05:24:37;12.53;;;6.63;;
1376;SDS011;682;52.502;13.488;2023-05-01T05:27:05;12.83;;;6.33;;
1376;SDS011;682;52.502;13.488;2023-05-01T05:29:32;14.73;;;7.70;;
1376;SDS011;682;52.502;13.488;2023-05-01T05:32:08;11.80;;;7.30;;
1376;SDS011;682;52.502;13.488;2023-05-01T05:34:35;10.23;;;6.37;;
1376;SDS011;682;52.502;13.488;2023-05-01T05:37:03;12.40;;;6.80;;
1376;SDS011;682;52.502;13.488;2023-05-01T05:39:30;11.67;;;7.13;;
1376;SDS011;682;52.502;13.488;2023-05-01T05:41:59;12.53;;;6.87;;
1376;SDS011;682;52.502;13.488;2023-05-01T05:44:29;10.30;;;6.50;;
1376;SDS011;682;52.502;13.488;2023-05-01T05:46:57;10.97;;;7.03;;
1376;SDS011;682;52.502;13.488;2023-05-01T05:49:24;11.13;;;6.83;;
1376;SDS011;682;52.502;13.488;2023-05-01T05:51:51;10.67;;;6.33;;
1376;SDS011;682;52.502;13.488;2023-05-01T05:54:18;11.80;;;6.77;;
1376;SDS011;682;52.502;13.488;2023-05-01T05:56:45;12.03;;;6.40;;
1376;SDS011;682;52.502;13.488;2023-05-01T05:59:12;14.20;;;7.20;;
1376;SDS011;682;52.502;13.488;2023-05-01T06:01:40;10.40;;;6.60;;
1376;SDS011;682;52.502;13.488;2023-05-01T06:04:08;10.73;;;5.57;;
1376;SDS011;682;52.502;13.488;2023-05-01T06:06:39;11.63;;;5.73;;
1376;SDS011;682;52.502;13.488;2023-05-01T06:09:06;9.93;;;5.80;;
1376;SDS011;682;52.502;13.488;2023-05-01T06:11:37;13.60;;;7.70;;
1376;SDS011;682;52.502;13.488;2023-05-01T06:14:04;10.67;;;6.00;;
1376;SDS011;682;52.502;13.488;2023-05-01T06:16:31;10.13;;;5.90;;
1376;SDS011;682;52.502;13.488;2023-05-01T06:19:03;10.00;;;5.80;;
1376;SDS011;682;52.502;13.488;2023-05-01T06:21:31;10.93;;;5.20;;
1376;SDS011;682;52.502;13.488;2023-05-01T06:23:59;9.10;;;5.10;;
1376;SDS011;682;52.502;13.488;2023-05-01T06:26:26;7.73;;;5.63;;
1376;SDS011;682;52.502;13.488;2023-05-01T06:28:53;8.83;;;5.37;;
1376;SDS011;682;52.502;13.488;2023-05-01T06:31:23;11.40;;;5.57;;
1376;SDS011;682;52.502;13.488;2023-05-01T06:33:51;11.13;;;5.57;;
1376;SDS011;682;52.502;13.488;2023-05-01T06:36:19;9.10;;;5.40;;
1376;SDS011;682;52.502;13.488;2023-05-01T06:38:46;10.33;;;4.77;;
1376;SDS011;682;52.502;13.488;2023-05-01T06:41:13;9.73;;;5.23;;
1376;SDS011;682;52.502;13.488;2023-05-01T06:43:41;9.20;;;4.80;;
1376;SDS011;682;52.502;13.488;2023-05-01T06:46:08;8.43;;;4.97;;
1376;SDS011;682;52.502;13.488;2023-05-01T06:48:36;11.10;;;5.20;;
1376;SDS011;682;52.502;13.488;2023-05-01T06:51:05;8.73;;;4.63;;
1376;SDS011;682;52.502;13.488;2023-05-01T06:53:35;9.10;;;5.07;;
1376;SDS011;682;52.502;13.488;2023-05-01T06:56:04;9.63;;;4.90;;
1376;SDS011;682;52.502;13.488;2023-05-01T06:58:31;8.97;;;4.83;;
1376;SDS011;682;52.502;13.488;2023-05-01T07:00:58;8.93;;;4.83;;
1376;SDS011;682;52.502;13.488;2023-05-01T07:03:25;10.23;;;4.93;;
1376;SDS011;682;52.502;13.488;2023-05-01T07:05:52;10.03;;;5.30;;
1376;SDS011;682;52.502;13.488;2023-05-01T07:08:20;10.30;;;5.60;;
1376;SDS011;682;52.502;13.488;2023-05-01T07:10:49;7.87;;;5.07;;
1376;SDS011;682;52.502;13.488;2023-05-01T07:13:18;10.67;;;5.27;;
1376;SDS011;682;52.502;13.488;2023-05-01T07:15:45;10.33;;;5.43;;
1376;SDS011;682;52.502;13.488;2023-05-01T07:18:12;7.67;;;5.50;;
1376;SDS011;682;52.502;13.488;2023-05-01T07:20:41;9.33;;;5.47;;
1376;SDS011;682;52.502;13.488;2023-05-01T07:23:09;8.67;;;5.30;;
1376;SDS011;682;52.502;13.488;2023-05-01T07:25:36;12.60;;;5.00;;
1376;SDS011;682;52.502;13.488;2023-05-01T07:28:10;11.40;;;5.50;;
1376;SDS011;682;52.502;13.488;2023-05-01T07:30:38;11.97;;;5.60;;
1376;SDS011;682;52.502;13.488;2023-05-01T07:33:07;13.67;;;5.63;;
1376;SDS011;682;52.502;13.488;2023-05-01T07:35:36;9.27;;;5.13;;
1376;SDS011;682;52.502;13.488;2023-05-01T07:38:06;10.10;;;5.20;;
1376;SDS011;682;52.502;13.488;2023-05-01T07:40:33;9.03;;;4.67;;
1376;SDS011;682;52.502;13.488;2023-05-01T07:43:05;7.60;;;4.93;;
1376;SDS011;682;52.502;13.488;2023-05-01T07:45:36;8.53;;;4.90;;
1376;SDS011;682;52.502;13.488;2023-05-01T07:48:03;10.50;;;4.37;;
1376;SDS011;682;52.502;13.488;2023-05-01T07:50:41;9.57;;;4.60;;
1376;SDS011;682;52.502;13.488;2023-05-01T07:53:13;8.80;;;4.53;;
1376;SDS011;682;52.502;13.488;2023-05-01T07:56:03;7.10;;;3.80;;
1376;SDS011;682;52.502;13.488;2023-05-01T07:58:32;8.67;;;4.13;;
1376;SDS011;682;52.502;13.488;2023-05-01T08:01:01;9.33;;;4.20;;
1376;SDS011;682;52.502;13.488;2023-05-01T08:03:29;7.10;;;4.00;;
1376;SDS011;682;52.502;13.488;2023-05-01T08:05:58;7.07;;;3.80;;
1376;SDS011;682;52.502;13.488;2023-05-01T08:08:25;10.63;;;4.47;;
1376;SDS011;682;52.502;13.488;2023-05-01T08:10:54;11.03;;;5.97;;
1376;SDS011;682;52.502;13.488;2023-05-01T08:13:21;8.23;;;3.70;;
1376;SDS011;682;52.502;13.488;2023-05-01T08:15:48;7.57;;;4.60;;
1376;SDS011;682;52.502;13.488;2023-05-01T08:18:18;7.77;;;4.30;;
1376;SDS011;682;52.502;13.488;2023-05-01T08:20:46;9.50;;;4.40;;
1376;SDS011;682;52.502;13.488;2023-05-01T08:23:15;9.87;;;4.83;;
1376;SDS011;682;52.502;13.488;2023-05-01T08:25:43;10.33;;;4.70;;
1376;SDS011;682;52.502;13.488;2023-05-01T08:28:15;17.70;;;11.93;;
1376;SDS011;682;52.502;13.488;2023-05-01T08:30:45;7.63;;;4.00;;
1376;SDS011;682;52.502;13.488;2023-05-01T08:33:14;8.60;;;4.30;;
1376;SDS011;682;52.502;13.488;2023-05-01T08:35:43;7.70;;;4.63;;
1376;SDS011;682;52.502;13.488;2023-05-01T08:38:10;8.40;;;4.40;;
1376;SDS011;682;52.502;13.488;2023-05-01T08:40:38;7.47;;;4.30;;
1376;SDS011;682;52.502;13.488;2023-05-01T08:43:10;6.97;;;3.87;;
1376;SDS011;682;52.502;13.488;2023-05-01T08:45:39;6.30;;;3.77;;
1376;SDS011;682;52.502;13.488;2023-05-01T08:48:09;9.30;;;4.30;;
1376;SDS011;682;52.502;13.488;2023-05-01T08:50:37;6.87;;;3.57;;
1376;SDS011;682;52.502;13.488;2023-05-01T08:53:06;7.20;;;3.93;;
1376;SDS011;682;52.502;13.488;2023-05-01T08:55:38;8.90;;;3.70;;
1376;SDS011;682;52.502;13.488;2023-05-01T08:58:05;7.90;;;4.83;;
1376;SDS011;682;52.502;13.488;2023-05-01T09:00:34;5.90;;;3.20;;
1376;SDS011;682;52.502;13.488;2023-05-01T09:03:04;9.67;;;5.37;;
1376;SDS011;682;52.502;13.488;2023-05-01T09:05:32;7.70;;;3.93;;
1376;SDS011;682;52.502;13.488;2023-05-01T09:07:59;7.25;;;3.55;;
1376;SDS011;682;52.502;13.488;2023-05-01T09:10:28;6.93;;;3.80;;
1376;SDS011;682;52.502;13.488;2023-05-01T09:12:59;8.03;;;4.40;;
1376;SDS011;682;52.502;13.488;2023-05-01T09:15:27;7.47;;;3.93;;
1376;SDS011;682;52.502;13.488;2023-05-01T09:17:55;7.47;;;3.70;;
1376;SDS011;682;52.502;13.488;2023-05-01T09:20:23;5.13;;;3.30;;
1376;SDS011;682;52.502;13.488;2023-05-01T09:22:50;7.23;;;3.53;;
1376;SDS011;682;52.502;13.488;2023-05-01T09:25:18;6.30;;;3.33;;
1376;SDS011;682;52.502;13.488;2023-05-01T09:27:47;7.10;;;3.73;;
1376;SDS011;682;52.502;13.488;2023-05-01T09:30:28;7.90;;;4.40;;
1376;SDS011;682;52.502;13.488;2023-05-01T09:33:02;7.50;;;3.90;;
1376;SDS011;682;52.502;13.488;2023-05-01T09:35:46;7.20;;;3.60;;
1376;SDS011;682;52.502;13.488;2023-05-01T09:38:18;5.87;;;3.40;;
1376;SDS011;682;52.502;13.488;2023-05-01T09:40:46;9.77;;;4.07;;
1376;SDS011;682;52.502;13.488;2023-05-01T09:43:15;7.10;;;3.27;;
1376;SDS011;682;52.502;13.488;2023-05-01T09:46:04;6.67;;;4.07;;
1376;SDS011;682;52.502;13.488;2023-05-01T09:48:33;6.67;;;3.83;;
1376;SDS011;682;52.502;13.488;2023-05-01T09:51:05;6.20;;;4.00;;
1376;SDS011;682;52.502;13.488;2023-05-01T09:53:46;6.83;;;3.30;;
1376;SDS011;682;52.502;13.488;2023-05-01T09:56:13;6.50;;;3.93;;
1376;SDS011;682;52.502;13.488;2023-05-01T09:58:43;7.50;;;3.93;;
1376;SDS011;682;52.502;13.488;2023-05-01T10:01:09;6.90;;;4.03;;
1376;SDS011;682;52.502;13.488;2023-05-01T10:03:39;7.30;;;3.60;;
1376;SDS011;682;52.502;13.488;2023-05-01T10:06:08;5.77;;;4.40;;
1376;SDS011;682;52.502;13.488;2023-05-01T10:08:45;6.23;;;4.10;;
1376;SDS011;682;52.502;13.488;2023-05-01T10:11:15;6.30;;;4.10;;
1376;SDS011;682;52.502;13.488;2023-05-01T10:13:47;6.43;;;4.53;;
1376;SDS011;682;52.502;13.488;2023-05-01T10:16:32;4.73;;;4.03;;
1376;SDS011;682;52.502;13.488;2023-05-01T10:19:01;5.87;;;3.80;;
1376;SDS011;682;52.502;13.488;2023-05-01T10:21:31;7.50;;;4.87;;
1376;SDS011;682;52.502;13.488;2023-05-01T10:24:00;5.33;;;4.20;;
1376;SDS011;682;52.502;13.488;2023-05-01T10:26:29;5.70;;;4.30;;
1376;SDS011;682;52.502;13.488;2023-05-01T10:28:59;6.33;;;4.77;;
1376;SDS011;682;52.502;13.488;2023-05-01T10:31:27;5.20;;;4.10;;
1376;SDS011;682;52.502;13.488;2023-05-01T10:33:57;5.27;;;3.70;;
1376;SDS011;682;52.502;13.488;2023-05-01T10:36:26;7.23;;;4.63;;
1376;SDS011;682;52.502;13.488;2023-05-01T10:38:59;6.57;;;4.43;;
1376;SDS011;682;52.502;13.488;2023-05-01T10:44:34;8.17;;;4.77;;
1376;SDS011;682;52.502;13.488;2023-05-01T10:50:08;8.17;;;4.37;;
1376;SDS011;682;52.502;13.488;2023-05-01T10:55:40;6.40;;;4.53;;
1376;SDS011;682;52.502;13.488;2023-05-01T10:58:09;5.57;;;5.07;;
1376;SDS011;682;52.502;13.488;2023-05-01T11:00:40;6.40;;;4.03;;
1376;SDS011;682;52.502;13.488;2023-05-01T11:06:04;5.47;;;4.90;;
1376;SDS011;682;52.502;13.488;2023-05-01T11:08:32;5.73;;;4.83;;
1376;SDS011;682;52.502;13.488;2023-05-01T11:14:07;7.57;;;4.60;;
1376;SDS011;682;52.502;13.488;2023-05-01T11:16:40;5.63;;;4.50;;
1376;SDS011;682;52.502;13.488;2023-05-01T11:19:10;6.30;;;5.13;;
1376;SDS011;682;52.502;13.488;2023-05-01T11:21:54;4.97;;;4.43;;
1376;SDS011;682;52.502;13.488;2023-05-01T11:24:30;5.60;;;4.47;;
1376;SDS011;682;52.502;13.488;2023-05-01T11:27:13;6.63;;;4.70;;
1376;SDS011;682;52.502;13.488;2023-05-01T11:29:43;6.20;;;4.40;;
1376;SDS011;682;52.502;13.488;2023-05-01T11:32:18;9.00;;;4.67;;
1376;SDS011;682;52.502;13.488;2023-05-01T11:34:49;6.20;;;4.60;;
1376;SDS011;682;52.502;13.488;2023-05-01T11:37:17;4.97;;;4.20;;
1376;SDS011;682;52.502;13.488;2023-05-01T11:39:50;6.20;;;4.93;;
1376;SDS011;682;52.502;13.488;2023-05-01T11:42:19;6.50;;;4.90;;
1376;SDS011;682;52.502;13.488;2023-05-01T11:45:06;5.47;;;4.67;;
1376;SDS011;682;52.502;13.488;2023-05-01T11:47:38;5.30;;;4.60;;
1376;SDS011;682;52.502;13.488;2023-05-01T11:50:06;7.00;;;4.10;;
1376;SDS011;682;52.502;13.488;2023-05-01T11:52:41;5.53;;;4.90;;
1376;SDS011;682;52.502;13.488;2023-05-01T11:55:09;5.77;;;5.00;;
1376;SDS011;682;52.502;13.488;2023-05-01T11:57:46;5.20;;;4.57;;
1376;SDS011;682;52.502;13.488;2023-05-01T12:00:14;5.03;;;4.53;;
1376;SDS011;682;52.502;13.488;2023-05-01T12:05:41;7.60;;;5.17;;
1376;SDS011;682;52.502;13.488;2023-05-01T12:08:12;5.33;;;4.67;;
1376;SDS011;682;52.502;13.488;2023-05-01T12:10:42;4.70;;;4.30;;
1376;SDS011;682;52.502;13.488;2023-05-01T12:13:11;6.20;;;4.73;;
1376;SDS011;682;52.502;13.488;2023-05-01T12:15:40;4.43;;;4.00;;
1376;SDS011;682;52.502;13.488;2023-05-01T12:18:14;4.90;;;4.40;;
1376;SDS011;682;52.502;13.488;2023-05-01T12:20:45;5.30;;;4.80;;
1376;SDS011;682;52.502;13.488;2023-05-01T12:25:52;5.00;;;4.50;;
1376;SDS011;682;52.502;13.488;2023-05-01T12:28:24;7.90;;;4.70;;
1376;SDS011;682;52.502;13.488;2023-05-01T12:30:56;5.33;;;4.60;;
1376;SDS011;682;52.502;13.488;2023-05-01T12:33:33;5.70;;;4.80;;
1376;SDS011;682;52.502;13.488;2023-05-01T12:36:09;5.20;;;4.70;;
1376;SDS011;682;52.502;13.488;2023-05-01T12:38:51;5.33;;;4.30;;
1376;SDS011;682;52.502;13.488;2023-05-01T12:41:30;6.20;;;4.50;;
1376;SDS011;682;52.502;13.488;2023-05-01T12:43:58;4.63;;;4.20;;
1376;SDS011;682;52.502;13.488;2023-05-01T12:46:32;5.50;;;5.00;;
1376;SDS011;682;52.502;13.488;2023-05-01T12:49:06;6.37;;;5.80;;
1376;SDS011;682;52.502;13.488;2023-05-01T12:51:34;4.90;;;3.90;;
1376;SDS011;682;52.502;13.488;2023-05-01T12:54:07;4.27;;;3.90;;
1376;SDS011;682;52.502;13.488;2023-05-01T12:56:35;4.83;;;4.43;;
1376;SDS011;682;52.502;13.488;2023-05-01T12:59:02;5.73;;;5.00;;
1376;SDS011;682;52.502;13.488;2023-05-01T13:01:30;5.17;;;4.50;;
1376;SDS011;682;52.502;13.488;2023-05-01T13:03:58;5.87;;;4.80;;
1376;SDS011;682;52.502;13.488;2023-05-01T13:06:37;6.20;;;4.97;;
1376;SDS011;682;52.502;13.488;2023-05-01T13:09:11;6.53;;;5.33;;
1376;SDS011;682;52.502;13.488;2023-05-01T13:11:45;7.00;;;5.50;;
1376;SDS011;682;52.502;13.488;2023-05-01T13:14:34;5.67;;;4.67;;
1376;SDS011;682;52.502;13.488;2023-05-01T13:17:04;5.20;;;4.33;;
1376;SDS011;682;52.502;13.488;2023-05-01T13:19:32;6.17;;;4.27;;
1376;SDS011;682;52.502;13.488;2023-05-01T13:22:09;9.93;;;5.07;;
1376;SDS011;682;52.502;13.488;2023-05-01T13:24:40;5.80;;;4.97;;
1376;SDS011;682;52.502;13.488;2023-05-01T13:27:12;5.80;;;5.07;;
1376;SDS011;682;52.502;13.488;2023-05-01T13:29:40;4.90;;;4.50;;
1376;SDS011;682;52.502;13.488;2023-05-01T13:32:09;5.50;;;4.37;;
1376;SDS011;682;52.502;13.488;2023-05-01T13:34:40;5.87;;;5.27;;
1376;SDS011;682;52.502;13.488;2023-05-01T13:37:11;6.53;;;4.90;;
1376;SDS011;682;52.502;13.488;2023-05-01T13:39:38;6.17;;;5.57;;
1376;SDS011;682;52.502;13.488;2023-05-01T13:42:06;5.77;;;5.27;;
1376;SDS011;682;52.502;13.488;2023-05-01T13:44:34;5.80;;;5.20;;
1376;SDS011;682;52.502;13.488;2023-05-01T13:47:09;7.13;;;6.20;;
1376;SDS011;682;52.502;13.488;2023-05-01T13:49:40;6.20;;;4.93;;
1376;SDS011;682;52.502;13.488;2023-05-01T13:52:11;4.80;;;4.37;;
1376;SDS011;682;52.502;13.488;2023-05-01T13:54:39;5.37;;;4.87;;
1376;SDS011;682;52.502;13.488;2023-05-01T13:57:07;5.23;;;4.70;;
1376;SDS011;682;52.502;13.488;2023-05-01T13:59:35;5.73;;;5.10;;
1376;SDS011;682;52.502;13.488;2023-05-01T14:02:09;5.40;;;4.27;;
1376;SDS011;682;52.502;13.488;2023-05-01T14:04:44;5.40;;;4.50;;
1376;SDS011;682;52.502;13.488;2023-05-01T14:07:13;5.70;;;5.00;;
1376;SDS011;682;52.502;13.488;2023-05-01T14:09:45;5.70;;;5.03;;
1376;SDS011;682;52.502;13.488;2023-05-01T14:12:16;5.50;;;5.00;;
1376;SDS011;682;52.502;13.488;2023-05-01T14:14:54;5.13;;;4.70;;
1376;SDS011;682;52.502;13.488;2023-05-01T14:17:24;8.70;;;6.03;;
1376;SDS011;682;52.502;13.488;2023-05-01T14:19:55;6.60;;;5.90;;
1376;SDS011;682;52.502;13.488;2023-05-01T14:22:23;6.07;;;4.37;;
1376;SDS011;682;52.502;13.488;2023-05-01T14:24:54;6.53;;;5.93;;
1376;SDS011;682;52.502;13.488;2023-05-01T14:27:21;5.10;;;4.60;;
1376;SDS011;682;52.502;13.488;2023-05-01T14:29:48;6.40;;;5.83;;
1376;SDS011;682;52.502;13.488;2023-05-01T14:32:15;6.60;;;5.80;;
1376;SDS011;682;52.502;13.488;2023-05-01T14:34:42;6.90;;;5.70;;
1376;SDS011;682;52.502;13.488;2023-05-01T14:37:10;5.77;;;5.00;;
1376;SDS011;682;52.502;13.488;2023-05-01T14:39:42;6.30;;;5.00;;
1376;SDS011;682;52.502;13.488;2023-05-01T14:42:09;7.43;;;5.13;;
1376;SDS011;682;52.502;13.488;2023-05-01T14:44:38;6.50;;;5.90;;
1376;SDS011;682;52.502;13.488;2023-05-01T14:47:07;5.90;;;5.30;;
1376;SDS011;682;52.502;13.488;2023-05-01T14:49:34;6.57;;;5.40;;
1376;SDS011;682;52.502;13.488;2023-05-01T14:52:01;5.93;;;5.30;;
1376;SDS011;682;52.502;13.488;2023-05-01T14:54:43;5.70;;;5.10;;
1376;SDS011;682;52.502;13.488;2023-05-01T14:57:13;5.70;;;5.10;;
1376;SDS011;682;52.502;13.488;2023-05-01T14:59:40;5.73;;;5.20;;
1376;SDS011;682;52.502;13.488;2023-05-01T15:02:07;6.70;;;6.07;;
1376;SDS011;682;52.502;13.488;2023-05-01T15:04:34;7.37;;;5.80;;
1376;SDS011;682;52.502;13.488;2023-05-01T15:07:00;8.20;;;5.33;;
1376;SDS011;682;52.502;13.488;2023-05-01T15:09:27;7.30;;;6.50;;
1376;SDS011;682;52.502;13.488;2023-05-01T15:11:56;14.27;;;13.07;;
1376;SDS011;682;52.502;13.488;2023-05-01T15:14:23;5.80;;;5.20;;
1376;SDS011;682;52.502;13.488;2023-05-01T15:16:51;6.60;;;5.07;;
1376;SDS011;682;52.502;13.488;2023-05-01T15:19:18;7.20;;;5.57;;
1376;SDS011;682;52.502;13.488;2023-05-01T15:21:46;6.23;;;5.60;;
1376;SDS011;682;52.502;13.488;2023-05-01T15:24:13;5.90;;;5.40;;
1376;SDS011;682;52.502;13.488;2023-05-01T15:26:40;5.60;;;5.10;;
1376;SDS011;682;52.502;13.488;2023-05-01T15:29:08;6.53;;;5.93;;
1376;SDS011;682;52.502;13.488;2023-05-01T15:31:35;6.13;;;5.60;;
1376;SDS011;682;52.502;13.488;2023-05-01T15:34:02;8.07;;;7.27;;
1376;SDS011;682;52.502;13.488;2023-05-01T15:36:29;7.70;;;5.70;;
1376;SDS011;682;52.502;13.488;2023-05-01T15:38:56;6.37;;;5.57;;
1376;SDS011;682;52.502;13.488;2023-05-01T15:41:23;6.00;;;5.40;;
1376;SDS011;682;52.502;13.488;2023-05-01T15:43:50;8.50;;;5.17;;
1376;SDS011;682;52.502;13.488;2023-05-01T15:46:19;6.07;;;5.47;;
1376;SDS011;682;52.502;13.488;2023-05-01T15:48:49;6.57;;;5.37;;